createdAt,value
2017-08-02T05:56:54.056Z,16.2
2017-08-02T05:57:56.191Z,16.4
2017-08-02T05:58:58.628Z,16.4
2017-08-02T06:00:00.735Z,16.4
2017-08-02T06:01:03.157Z,16.5
2017-08-02T06:02:06.286Z,16.5
2017-08-02T06:03:08.375Z,16.5
2017-08-02T06:04:10.805Z,16.5
2017-08-02T06:05:13.243Z,16.5
2017-08-02T06:06:15.348Z,16.5
2017-08-02T06:07:17.417Z,16.6
2017-08-02T06:08:20.199Z,16.6
2017-08-02T06:09:22.306Z,16.6
2017-08-02T06:10:24.428Z,16.6
2017-08-02T06:11:26.522Z,16.6
2017-08-02T06:12:28.651Z,16.6
2017-08-02T06:13:31.084Z,16.7
2017-08-02T06:14:33.530Z,16.8
2017-08-02T06:15:35.621Z,16.8
2017-08-02T06:16:38.064Z,16.8
2017-08-02T06:17:40.482Z,16.8
2017-08-02T06:18:42.574Z,16.8
2017-08-02T06:19:45.028Z,16.8
2017-08-02T06:20:47.149Z,16.9
2017-08-02T06:21:49.590Z,17
2017-08-02T06:22:51.679Z,17
2017-08-02T06:23:53.769Z,17
2017-08-02T06:24:55.868Z,17
2017-08-02T06:25:58.636Z,17.1
2017-08-02T06:27:00.730Z,17
2017-08-02T06:28:03.502Z,17.1
2017-08-02T06:29:05.933Z,17
2017-08-02T06:30:08.371Z,17.1
2017-08-02T06:31:10.482Z,17.1
2017-08-02T06:32:12.590Z,17.2
2017-08-02T06:33:14.719Z,17.2
2017-08-02T06:34:16.814Z,17.1
2017-08-02T06:35:18.930Z,17.2
2017-08-02T06:36:21.367Z,17.3
2017-08-02T06:37:24.149Z,17.3
2017-08-02T06:38:26.256Z,17.3
2017-08-02T06:39:28.370Z,17.3
2017-08-02T06:40:30.437Z,17.3
2017-08-02T06:41:32.880Z,17.4
2017-08-02T06:42:35.322Z,17.4
2017-08-02T06:43:37.780Z,17.4
2017-08-02T06:44:40.224Z,17.5
2017-08-02T06:45:42.314Z,17.5
2017-08-02T06:46:44.761Z,17.5
2017-08-02T06:47:46.846Z,17.5
2017-08-02T06:48:49.279Z,17.5
2017-08-02T06:49:51.397Z,17.5
2017-08-02T06:50:53.832Z,17.5
2017-08-02T06:51:55.920Z,17.5
2017-08-02T06:52:58.352Z,17.6
2017-08-02T06:54:00.460Z,17.5
2017-08-02T06:55:03.224Z,17.6
2017-08-02T06:56:05.321Z,17.6
2017-08-02T06:57:07.426Z,17.7
2017-08-02T06:58:09.868Z,17.8
2017-08-02T06:59:11.938Z,17.8
2017-08-02T07:00:14.032Z,17.9
2017-08-02T07:01:16.136Z,17.9
2017-08-02T07:02:18.228Z,17.9
2017-08-02T07:03:20.315Z,18
2017-08-02T07:04:22.741Z,18
2017-08-02T07:05:24.843Z,18
2017-08-02T07:06:27.267Z,18
2017-08-02T07:07:29.361Z,18
2017-08-02T07:08:31.486Z,18
2017-08-02T07:09:33.933Z,18
2017-08-02T07:10:36.032Z,18.1
2017-08-02T07:11:38.463Z,18.1
2017-08-02T07:12:40.898Z,18.2
2017-08-02T07:13:43.017Z,18.3
2017-08-02T07:14:45.108Z,18.3
2017-08-02T07:15:47.243Z,18.3
2017-08-02T07:16:49.688Z,18.3
2017-08-02T07:17:51.785Z,18.4
2017-08-02T07:18:54.216Z,18.5
2017-08-02T07:19:56.642Z,18.4
2017-08-02T07:20:58.723Z,18.5
2017-08-02T07:22:00.823Z,18.5
2017-08-02T07:23:02.935Z,18.5
2017-08-02T07:24:05.395Z,18.5
2017-08-02T07:25:07.502Z,18.5
2017-08-02T07:26:09.603Z,18.5
2017-08-02T07:27:11.691Z,18.5
2017-08-02T07:28:14.120Z,18.6
2017-08-02T07:29:16.220Z,18.6
2017-08-02T07:30:18.648Z,18.6
2017-08-02T07:31:20.741Z,18.6
2017-08-02T07:32:22.849Z,18.7
2017-08-02T07:33:25.620Z,18.6
2017-08-02T07:34:27.702Z,18.7
2017-08-02T07:35:29.795Z,18.7
2017-08-02T07:36:31.895Z,18.8
2017-08-02T07:37:33.994Z,18.8
2017-08-02T07:38:36.424Z,18.8
2017-08-02T07:39:38.517Z,18.9
2017-08-02T07:40:40.978Z,18.9
2017-08-02T07:41:43.080Z,19
2017-08-02T07:42:45.171Z,19
2017-08-02T07:43:47.601Z,19
2017-08-02T07:44:50.029Z,19
2017-08-02T07:45:52.118Z,19
2017-08-02T07:46:54.201Z,19
2017-08-02T07:47:56.294Z,19
2017-08-02T07:48:58.724Z,19
2017-08-02T07:50:01.176Z,19
2017-08-02T07:51:54.586Z,19.1
2017-08-02T07:52:56.677Z,19.2
2017-08-02T07:53:58.795Z,19.1
2017-08-02T07:55:01.919Z,19.1
2017-08-02T07:56:04.690Z,19.1
2017-08-02T07:57:06.800Z,19.1
2017-08-02T07:58:08.892Z,19.1
2017-08-02T07:59:10.991Z,19.1
2017-08-02T08:00:13.785Z,19.2
2017-08-02T08:01:15.888Z,19.2
2017-08-02T08:02:18.401Z,19.2
2017-08-02T08:03:20.817Z,19.3
2017-08-02T08:04:22.923Z,19.2
2017-08-02T08:05:25.017Z,19.3
2017-08-02T08:06:27.096Z,19.3
2017-08-02T08:07:29.187Z,19.4
2017-08-02T08:08:31.278Z,19.4
2017-08-02T08:09:33.719Z,19.4
2017-08-02T08:10:36.160Z,19.5
2017-08-02T08:11:38.254Z,19.6
2017-08-02T08:12:40.700Z,19.7
2017-08-02T08:13:43.136Z,19.7
2017-08-02T08:14:45.234Z,19.7
2017-08-02T08:15:47.349Z,19.8
2017-08-02T08:16:49.776Z,19.8
2017-08-02T08:17:51.864Z,19.9
2017-08-02T08:18:54.294Z,20
2017-08-02T08:19:56.723Z,20
2017-08-02T08:20:58.821Z,20.1
2017-08-02T08:22:01.273Z,20.2
2017-08-02T08:23:03.368Z,20.3
2017-08-02T08:24:05.460Z,20.4
2017-08-02T08:25:07.893Z,20.5
2017-08-02T08:26:10.349Z,20.5
2017-08-02T08:27:12.444Z,20.6
2017-08-02T08:28:14.543Z,20.6
2017-08-02T08:29:16.647Z,20.5
2017-08-02T08:30:18.743Z,20.5
2017-08-02T08:31:20.843Z,20.4
2017-08-02T08:32:23.272Z,20.3
2017-08-02T08:33:25.365Z,20.5
2017-08-02T08:34:27.455Z,20.7
2017-08-02T08:35:29.554Z,20.9
2017-08-02T08:36:31.985Z,21
2017-08-02T08:37:34.085Z,21.1
2017-08-02T08:38:36.830Z,21.2
2017-08-02T08:39:38.946Z,21.3
2017-08-02T08:40:41.024Z,21.4
2017-08-02T08:41:43.114Z,21.5
2017-08-02T08:42:45.547Z,21.5
2017-08-02T08:43:47.975Z,21.6
2017-08-02T08:44:50.422Z,21.8
2017-08-02T08:45:52.526Z,21.8
2017-08-02T08:46:54.601Z,21.9
2017-08-02T08:47:57.059Z,21.9
2017-08-02T08:48:59.149Z,21.9
2017-08-02T08:50:01.252Z,21.9
2017-08-02T08:51:04.044Z,21.8
2017-08-02T08:52:06.492Z,21.9
2017-08-02T08:53:08.591Z,21.9
2017-08-02T08:54:10.663Z,21.9
2017-08-02T08:55:12.765Z,22
2017-08-02T08:56:15.209Z,22
2017-08-02T08:57:17.295Z,21.9
2017-08-02T08:58:20.086Z,21.9
2017-08-02T08:59:22.526Z,22.2
2017-08-02T09:00:25.305Z,22.3
2017-08-02T09:01:27.397Z,22.3
2017-08-02T09:02:29.480Z,22.3
2017-08-02T09:03:31.588Z,22.4
2017-08-02T09:04:33.675Z,22.2
2017-08-02T09:05:35.765Z,22.3
2017-08-02T09:06:37.874Z,22.3
2017-08-02T09:07:39.964Z,22.4
2017-08-02T09:08:42.064Z,22.4
2017-08-02T09:09:44.492Z,22.5
2017-08-02T09:10:46.563Z,22.6
2017-08-02T09:11:48.652Z,22.7
2017-08-02T09:12:51.112Z,22.9
2017-08-02T09:13:53.203Z,22.7
2017-08-02T09:14:55.290Z,22.8
2017-08-02T09:15:57.388Z,23.1
2017-08-02T09:16:59.824Z,23
2017-08-02T09:18:02.268Z,23
2017-08-02T09:19:04.691Z,23.2
2017-08-02T09:20:06.806Z,23.2
2017-08-02T09:21:09.264Z,23.1
2017-08-02T09:22:11.346Z,23.1
2017-08-02T09:23:13.793Z,23.1
2017-08-02T09:24:15.892Z,23.3
2017-08-02T09:25:17.986Z,23.2
2017-08-02T09:26:20.079Z,23.3
2017-08-02T09:27:22.857Z,23.3
2017-08-02T09:28:25.632Z,23.6
2017-08-02T09:29:27.727Z,23.9
2017-08-02T09:30:30.182Z,23.9
2017-08-02T09:31:32.615Z,24
2017-08-02T09:32:35.072Z,23.8
2017-08-02T09:33:37.519Z,24.1
2017-08-02T09:34:39.942Z,24.1
2017-08-02T09:35:42.047Z,24.3
2017-08-02T09:36:44.137Z,24
2017-08-02T09:37:46.596Z,24
2017-08-02T09:38:49.056Z,24.3
2017-08-02T09:39:51.175Z,24.3
2017-08-02T09:40:53.631Z,24.4
2017-08-02T09:41:55.721Z,24.3
2017-08-02T09:42:57.823Z,23.9
2017-08-02T09:44:00.612Z,24.3
2017-08-02T09:45:02.719Z,24.5
2017-08-02T09:46:04.800Z,24.7
2017-08-02T09:47:07.233Z,24.7
2017-08-02T09:48:09.339Z,24.6
2017-08-02T09:49:11.446Z,24.7
2017-08-02T09:50:13.907Z,24.5
2017-08-02T09:51:15.998Z,24.3
2017-08-02T09:52:18.436Z,24.7
2017-08-02T09:53:21.235Z,24.9
2017-08-02T09:54:23.319Z,24.9
2017-08-02T09:55:25.436Z,24.8
2017-08-02T09:56:27.567Z,25
2017-08-02T09:57:30.020Z,24.9
2017-08-02T09:58:32.124Z,24.8
2017-08-02T09:59:34.231Z,24.8
2017-08-02T10:00:36.703Z,24.8
2017-08-02T10:01:38.825Z,25
2017-08-02T10:02:41.257Z,25.1
2017-08-02T10:03:43.719Z,25.2
2017-08-02T10:04:45.819Z,25.2
2017-08-02T10:05:47.935Z,25.1
2017-08-02T10:06:50.055Z,25.1
2017-08-02T10:07:52.142Z,25
2017-08-02T10:08:54.258Z,25
2017-08-02T10:09:56.347Z,25.1
2017-08-02T10:10:58.459Z,25.3
2017-08-02T10:12:00.567Z,25.4
2017-08-02T10:13:02.674Z,25
2017-08-02T10:14:04.795Z,25.1
2017-08-02T10:15:06.917Z,25.1
2017-08-02T10:16:09.376Z,25
2017-08-02T10:17:11.479Z,25
2017-08-02T10:18:13.924Z,24.8
2017-08-02T10:19:16.042Z,24.3
2017-08-02T10:20:18.487Z,24.3
2017-08-02T10:21:20.946Z,24.4
2017-08-02T10:22:23.051Z,24.4
2017-08-02T10:23:25.161Z,24.4
2017-08-02T10:24:27.268Z,24.2
2017-08-02T10:25:29.725Z,24.1
2017-08-02T10:26:31.837Z,23.8
2017-08-02T10:27:34.267Z,23.8
2017-08-02T10:28:36.410Z,23.8
2017-08-02T10:29:38.849Z,23.8
2017-08-02T10:30:40.949Z,23.8
2017-08-02T10:31:43.401Z,23.8
2017-08-02T10:32:45.511Z,23.7
2017-08-02T10:33:47.610Z,23.5
2017-08-02T10:34:50.069Z,24
2017-08-02T10:35:52.184Z,24.1
2017-08-02T10:36:54.285Z,23.9
2017-08-02T10:37:56.375Z,23.6
2017-08-02T10:38:58.483Z,23.5
2017-08-02T10:40:00.587Z,23.7
2017-08-02T10:41:02.698Z,23.9
2017-08-02T10:42:04.798Z,24
2017-08-02T10:43:06.921Z,23.9
2017-08-02T10:44:09.045Z,23.8
2017-08-02T10:45:11.154Z,23.8
2017-08-02T10:46:13.586Z,23.9
2017-08-02T10:47:16.044Z,23.8
2017-08-02T10:48:18.151Z,23.9
2017-08-02T10:49:20.257Z,23.9
2017-08-02T10:50:22.356Z,24.1
2017-08-02T10:51:24.457Z,24.2
2017-08-02T10:52:26.912Z,24.2
2017-08-02T10:53:29.016Z,24.1
2017-08-02T10:54:31.455Z,24.1
2017-08-02T10:55:33.911Z,24.2
2017-08-02T10:56:36.020Z,24.4
2017-08-02T10:57:38.460Z,24.3
2017-08-02T10:58:40.569Z,24.3
2017-08-02T10:59:42.692Z,24.2
2017-08-02T11:00:45.135Z,24.2
2017-08-02T11:01:47.590Z,24.1
2017-08-02T11:02:49.684Z,24.1
2017-08-02T11:03:52.140Z,24.3
2017-08-02T11:04:54.232Z,24.4
2017-08-02T11:05:56.335Z,24.3
2017-08-02T11:06:58.445Z,24.4
2017-08-02T11:08:00.554Z,24.8
2017-08-02T11:09:03.364Z,24.9
2017-08-02T11:10:05.806Z,25
2017-08-02T11:11:07.900Z,24.9
2017-08-02T11:12:10.004Z,24.9
2017-08-02T11:13:12.443Z,24.9
2017-08-02T11:14:14.537Z,24.9
2017-08-02T11:15:16.978Z,24.8
2017-08-02T11:16:19.076Z,24.9
2017-08-02T11:17:21.525Z,25
2017-08-02T11:18:24.351Z,25
2017-08-02T11:19:26.457Z,25.2
2017-08-02T11:20:28.888Z,25.2
2017-08-02T11:21:30.991Z,25.1
2017-08-02T11:22:33.436Z,25
2017-08-02T11:23:35.533Z,25
2017-08-02T11:24:38.001Z,25
2017-08-02T11:25:40.458Z,24.7
2017-08-02T11:26:42.570Z,24.6
2017-08-02T11:27:44.693Z,24.6
2017-08-02T11:28:47.161Z,24.6
2017-08-02T11:29:49.280Z,24.7
2017-08-02T11:30:51.719Z,24.8
2017-08-02T11:31:53.837Z,24.8
2017-08-02T11:32:55.960Z,25
2017-08-02T11:33:58.060Z,24.8
2017-08-02T11:35:00.162Z,24.8
2017-08-02T11:36:02.606Z,24.8
2017-08-02T11:37:05.056Z,24.8
2017-08-02T11:38:07.173Z,24.5
2017-08-02T11:39:09.626Z,24.8
2017-08-02T11:40:12.070Z,25
2017-08-02T11:41:14.167Z,24.9
2017-08-02T11:42:16.294Z,25
2017-08-02T11:43:19.087Z,25.2
2017-08-02T11:44:21.520Z,25.2
2017-08-02T11:45:23.955Z,25.4
2017-08-02T11:46:26.058Z,25.6
2017-08-02T11:47:28.498Z,25.5
2017-08-02T11:48:30.605Z,25.7
2017-08-02T11:49:32.738Z,26
2017-08-02T11:50:34.849Z,26
2017-08-02T11:51:36.940Z,26
2017-08-02T11:52:39.387Z,26
2017-08-02T11:53:41.495Z,26.1
2017-08-02T11:54:43.955Z,26
2017-08-02T11:55:46.072Z,26.1
2017-08-02T11:56:48.179Z,26
2017-08-02T11:57:50.296Z,26
2017-08-02T11:58:52.721Z,26.2
2017-08-02T11:59:54.840Z,26.4
2017-08-02T12:00:56.940Z,26.5
2017-08-02T12:01:59.390Z,26.5
2017-08-02T12:03:01.874Z,26.7
2017-08-02T12:04:03.987Z,26.5
2017-08-02T12:05:06.447Z,26.4
2017-08-02T12:06:08.561Z,26.6
2017-08-02T12:07:11.014Z,26.4
2017-08-02T12:08:13.828Z,26.7
2017-08-02T12:09:16.284Z,26.6
2017-08-02T12:10:18.388Z,26.7
2017-08-02T12:11:20.503Z,26.7
2017-08-02T12:12:22.610Z,26.8
2017-08-02T12:13:24.717Z,27
2017-08-02T12:14:27.519Z,27.1
2017-08-02T12:15:29.622Z,27.1
2017-08-02T12:16:31.727Z,27.4
2017-08-02T12:17:33.825Z,27.2
2017-08-02T12:18:35.945Z,27.2
2017-08-02T12:19:38.376Z,27.2
2017-08-02T12:20:40.825Z,27.3
2017-08-02T12:21:42.953Z,27.4
2017-08-02T12:22:45.416Z,27.3
2017-08-02T12:23:47.521Z,27.3
2017-08-02T12:24:49.620Z,27
2017-08-02T12:25:51.746Z,26.9
2017-08-02T12:26:53.855Z,26.8
2017-08-02T12:27:55.967Z,26.8
2017-08-02T12:28:58.419Z,26.9
2017-08-02T12:30:00.525Z,26.7
2017-08-02T12:31:02.972Z,26.7
2017-08-02T12:32:05.424Z,26.4
2017-08-02T12:33:08.204Z,26.6
2017-08-02T12:34:10.313Z,26.8
2017-08-02T12:35:12.782Z,27
2017-08-02T12:36:15.252Z,26.8
2017-08-02T12:37:17.354Z,26.7
2017-08-02T12:38:19.811Z,26.5
2017-08-02T12:39:23.088Z,26.3
2017-08-02T12:40:25.585Z,26.2
2017-08-02T12:41:28.064Z,26
2017-08-02T12:42:30.187Z,25.9
2017-08-02T12:43:32.321Z,26
2017-08-02T12:44:34.434Z,26
2017-08-02T12:45:36.544Z,25.9
2017-08-02T12:46:38.775Z,26.1
2017-08-02T12:47:41.653Z,26.2
2017-08-02T12:48:43.828Z,26.2
2017-08-02T12:49:45.954Z,26.5
2017-08-02T12:50:48.072Z,26.7
2017-08-02T12:51:50.541Z,26.7
2017-08-02T12:52:53.860Z,27.1
2017-08-02T12:53:55.971Z,27.1
2017-08-02T12:54:58.411Z,27.3
2017-08-02T12:56:00.883Z,27.5
2017-08-02T12:57:03.764Z,27.5
2017-08-02T12:58:06.558Z,27.6
2017-08-02T12:59:09.025Z,27.6
2017-08-02T13:00:11.154Z,27.6
2017-08-02T13:01:13.766Z,28
2017-08-02T13:02:21.833Z,28
2017-08-02T13:03:23.970Z,27.6
2017-08-02T13:04:26.096Z,27.3
2017-08-02T13:05:28.217Z,27.7
2017-08-02T13:06:31.020Z,28
2017-08-02T13:07:33.486Z,27.9
2017-08-02T13:08:35.601Z,27.8
2017-08-02T13:09:38.183Z,27.9
2017-08-02T13:10:40.330Z,27.8
2017-08-02T13:11:42.464Z,27.9
2017-08-02T13:12:45.298Z,28.1
2017-08-02T13:13:47.843Z,28.1
2017-08-02T13:14:50.356Z,28
2017-08-02T13:15:52.462Z,27.9
2017-08-02T13:16:54.569Z,27.9
2017-08-02T13:17:56.711Z,27.8
2017-08-02T13:18:58.868Z,28
2017-08-02T13:20:01.232Z,28
2017-08-02T13:21:03.363Z,27.9
2017-08-02T13:22:05.497Z,28.2
2017-08-02T13:23:07.613Z,28.4
2017-08-02T13:24:09.726Z,28.1
2017-08-02T13:25:11.837Z,27.9
2017-08-02T13:26:14.448Z,28
2017-08-02T13:27:16.587Z,27.9
2017-08-02T13:28:18.721Z,28
2017-08-02T13:29:21.175Z,27.8
2017-08-02T13:30:23.288Z,27.9
2017-08-02T13:31:25.733Z,27.9
2017-08-02T13:32:28.221Z,27.8
2017-08-02T13:33:30.329Z,27.8
2017-08-02T13:34:33.132Z,28.1
2017-08-02T13:35:35.598Z,27.9
2017-08-02T13:36:37.721Z,27.9
2017-08-02T13:37:39.836Z,28
2017-08-02T13:38:41.954Z,28
2017-08-02T13:39:44.074Z,28
2017-08-02T13:40:46.182Z,28
2017-08-02T13:41:48.632Z,27.8
2017-08-02T13:42:50.768Z,27.4
2017-08-02T13:43:52.953Z,27.4
2017-08-02T13:44:55.074Z,27.4
2017-08-02T13:45:57.186Z,27.2
2017-08-02T13:46:59.651Z,27.4
2017-08-02T13:48:02.454Z,27.5
2017-08-02T13:49:04.596Z,27.5
2017-08-02T13:50:07.772Z,27.6
2017-08-02T13:51:10.045Z,27.7
2017-08-02T13:52:12.229Z,27.6
2017-08-02T13:53:14.679Z,27.5
2017-08-02T13:54:16.789Z,27.6
2017-08-02T13:55:19.437Z,27.5
2017-08-02T13:56:21.671Z,27.4
2017-08-02T13:57:23.792Z,27.4
2017-08-02T13:58:25.986Z,27.2
2017-08-02T13:59:28.096Z,27
2017-08-02T14:00:30.209Z,26.9
2017-08-02T14:01:32.688Z,26.8
2017-08-02T14:02:34.794Z,26.5
2017-08-02T14:03:36.927Z,26.5
2017-08-02T14:04:39.397Z,26.6
2017-08-02T14:05:41.863Z,26.6
2017-08-02T14:06:43.975Z,26.9
2017-08-02T14:07:46.420Z,27.1
2017-08-02T14:08:48.534Z,26.7
2017-08-02T14:09:50.996Z,26.7
2017-08-02T14:10:53.467Z,26.7
2017-08-02T14:11:55.581Z,26.8
2017-08-02T14:12:58.370Z,26.8
2017-08-02T14:14:00.832Z,27
2017-08-02T14:15:03.397Z,26.8
2017-08-02T14:16:06.199Z,26.5
2017-08-02T14:17:08.990Z,26.4
2017-08-02T14:18:11.101Z,26.3
2017-08-02T14:19:13.217Z,26.1
2017-08-02T14:20:15.677Z,26
2017-08-02T14:21:18.324Z,26
2017-08-02T14:22:20.767Z,25.9
2017-08-02T14:23:23.478Z,25.8
2017-08-02T14:24:25.569Z,25.6
2017-08-02T14:25:27.832Z,25.7
2017-08-02T14:26:30.383Z,25.6
2017-08-02T14:27:32.494Z,25.5
2017-08-02T14:28:34.589Z,25.5
2017-08-02T14:29:36.696Z,25.5
2017-08-02T14:30:38.810Z,25.5
2017-08-02T14:31:41.279Z,25.5
2017-08-02T14:32:43.732Z,25.5
2017-08-02T14:33:45.844Z,25.6
2017-08-02T14:34:47.965Z,25.5
2017-08-02T14:35:56.531Z,25.5
2017-08-02T14:37:05.999Z,25.4
2017-08-02T14:38:19.398Z,25.3
2017-08-02T14:39:26.135Z,25.3
2017-08-02T14:40:34.352Z,25.2
2017-08-02T14:41:41.920Z,25.1
2017-08-02T14:42:51.041Z,25
2017-08-02T14:43:53.975Z,24.8
2017-08-02T14:44:56.090Z,24.8
2017-08-02T14:45:58.215Z,24.8
2017-08-02T14:47:00.322Z,24.8
2017-08-02T14:48:02.759Z,24.7
2017-08-02T14:49:05.552Z,24.5
2017-08-02T14:50:07.660Z,24.6
2017-08-02T14:51:09.781Z,24.5
2017-08-02T14:52:12.244Z,24.5
2017-08-02T14:53:14.672Z,24.5
2017-08-02T14:54:16.787Z,24.5
2017-08-02T14:55:19.229Z,24.2
2017-08-02T14:56:21.343Z,24.2
2017-08-02T14:57:23.454Z,24.4
2017-08-02T14:58:25.563Z,24.5
2017-08-02T14:59:27.675Z,24.5
2017-08-02T15:00:30.100Z,24.4
2017-08-02T15:01:32.539Z,24.4
2017-08-02T15:02:34.654Z,24.3
2017-08-02T15:03:36.766Z,24.1
2017-08-02T15:04:39.239Z,24.3
2017-08-02T15:05:41.687Z,24.1
2017-08-02T15:06:43.804Z,24.2
2017-08-02T15:07:45.917Z,24.1
2017-08-02T15:08:48.398Z,24.1
2017-08-02T15:09:50.521Z,23.9
2017-08-02T15:10:52.622Z,23.9
2017-08-02T15:11:54.710Z,24
2017-08-02T15:12:57.175Z,24.1
2017-08-02T15:13:59.277Z,24
2017-08-02T15:15:01.718Z,24
2017-08-02T15:16:04.515Z,24.1
2017-08-02T15:17:06.967Z,24.1
2017-08-02T15:18:09.426Z,24.1
2017-08-02T15:19:11.514Z,24
2017-08-02T15:20:13.620Z,24.1
2017-08-02T15:21:16.069Z,24.1
2017-08-02T15:22:18.510Z,24.2
2017-08-02T15:23:20.620Z,24.1
2017-08-02T15:24:22.722Z,24
2017-08-02T15:25:24.829Z,23.9
2017-08-02T15:26:26.931Z,23.9
2017-08-02T15:27:29.055Z,23.9
2017-08-02T15:28:31.833Z,23.9
2017-08-02T15:29:34.482Z,23.9
2017-08-02T15:30:36.580Z,23.9
2017-08-02T15:31:38.692Z,23.8
2017-08-02T15:32:41.127Z,23.8
2017-08-02T15:33:43.229Z,23.7
2017-08-02T15:34:45.320Z,23.8
2017-08-02T15:35:47.435Z,23.8
2017-08-02T15:36:49.548Z,23.8
2017-08-02T15:37:51.656Z,23.8
2017-08-02T15:38:53.769Z,23.9
2017-08-02T15:39:55.888Z,23.8
2017-08-02T15:40:58.310Z,23.9
2017-08-02T15:42:00.421Z,23.9
2017-08-02T15:43:02.521Z,23.9
2017-08-02T15:44:04.618Z,23.9
2017-08-02T15:45:06.741Z,23.9
2017-08-02T15:46:08.865Z,23.9
2017-08-02T15:47:10.971Z,23.9
2017-08-02T15:48:13.420Z,23.9
2017-08-02T15:49:15.511Z,23.9
2017-08-02T15:50:17.982Z,24
2017-08-02T15:51:20.768Z,23.9
2017-08-02T15:52:22.869Z,23.9
2017-08-02T15:53:25.028Z,23.9
2017-08-02T15:54:27.483Z,23.9
2017-08-02T15:55:29.580Z,23.9
2017-08-02T15:56:31.679Z,23.8
2017-08-02T15:57:33.792Z,23.8
2017-08-02T15:58:36.601Z,23.8
2017-08-02T15:59:38.740Z,23.8
2017-08-02T16:00:41.204Z,23.8
2017-08-02T16:01:43.312Z,23.7
2017-08-02T16:02:45.421Z,23.7
2017-08-02T16:03:47.864Z,23.6
2017-08-02T16:04:49.991Z,23.5
2017-08-02T16:05:52.113Z,23.5
2017-08-02T16:06:54.541Z,23.5
2017-08-02T16:07:56.651Z,23.5
2017-08-02T16:08:58.778Z,23.5
2017-08-02T16:10:00.882Z,23.4
2017-08-02T16:11:02.980Z,23.2
2017-08-02T16:12:05.416Z,23.3
2017-08-02T16:13:07.522Z,23.3
2017-08-02T16:14:09.656Z,23.2
2017-08-02T16:15:12.081Z,23.2
2017-08-02T16:16:14.523Z,23.2
2017-08-02T16:17:16.970Z,23.2
2017-08-02T16:18:19.427Z,23.1
2017-08-02T16:19:21.534Z,22.9
2017-08-02T16:20:23.995Z,22.8
2017-08-02T16:21:26.110Z,22.8
2017-08-02T16:22:28.209Z,22.8
2017-08-02T16:23:30.647Z,22.7
2017-08-02T16:24:32.753Z,22.7
2017-08-02T16:25:34.863Z,22.7
2017-08-02T16:26:36.979Z,22.7
2017-08-02T16:27:39.094Z,22.8
2017-08-02T16:28:41.908Z,22.9
2017-08-02T16:29:44.359Z,23
2017-08-02T16:30:46.790Z,23
2017-08-02T16:31:49.223Z,22.9
2017-08-02T16:32:51.344Z,22.9
2017-08-02T16:33:53.440Z,22.9
2017-08-02T16:34:55.542Z,22.7
2017-08-02T16:35:57.631Z,22.7
2017-08-02T16:36:59.709Z,22.7
2017-08-02T16:38:01.823Z,22.6
2017-08-02T16:39:04.261Z,22.6
2017-08-02T16:40:06.708Z,22.5
2017-08-02T16:41:08.810Z,22.4
2017-08-02T16:42:11.221Z,22.3
2017-08-02T16:43:13.678Z,22.4
2017-08-02T16:44:15.784Z,22.3
2017-08-02T16:45:17.884Z,22.2
2017-08-02T16:46:19.987Z,22.1
2017-08-02T16:47:22.082Z,22
2017-08-02T16:48:24.193Z,21.9
2017-08-02T16:49:26.308Z,21.9
2017-08-02T16:50:28.739Z,21.8
2017-08-02T16:51:30.842Z,21.8
2017-08-02T16:52:33.283Z,21.9
2017-08-02T16:53:35.728Z,21.9
2017-08-02T16:54:37.822Z,22
2017-08-02T16:55:39.936Z,22
2017-08-02T16:56:42.398Z,22
2017-08-02T16:57:44.503Z,22.1
2017-08-02T16:58:46.932Z,22.1
2017-08-02T16:59:49.027Z,22.1
2017-08-02T17:00:51.484Z,22.2
2017-08-02T17:01:53.924Z,22.3
2017-08-02T17:02:56.026Z,22.3
2017-08-02T17:03:58.137Z,22.2
2017-08-02T17:05:00.576Z,22.3
2017-08-02T17:06:02.709Z,22.3
2017-08-02T17:07:05.490Z,22.3
2017-08-02T17:08:07.945Z,22.2
2017-08-02T17:09:10.421Z,22.3
2017-08-02T17:10:12.570Z,22.3
2017-08-02T17:11:15.028Z,22.3
2017-08-02T17:12:17.132Z,22.3
2017-08-02T17:13:19.225Z,22.3
2017-08-02T17:14:21.336Z,22.3
2017-08-02T17:15:23.782Z,22.3
2017-08-02T17:16:25.888Z,22.3
2017-08-02T17:17:27.982Z,22.3
2017-08-02T17:18:30.100Z,22.2
2017-08-02T17:19:32.224Z,22.2
2017-08-02T17:20:34.660Z,22.2
2017-08-02T17:21:37.113Z,22.2
2017-08-02T17:22:39.198Z,22.1
2017-08-02T17:23:41.305Z,22
2017-08-02T17:24:43.416Z,22
2017-08-02T17:25:45.528Z,21.9
2017-08-02T17:26:47.980Z,21.9
2017-08-02T17:27:50.089Z,21.9
2017-08-02T17:28:52.196Z,21.9
2017-08-02T17:29:54.665Z,21.9
2017-08-02T17:30:56.745Z,21.9
2017-08-02T17:31:59.191Z,21.9
2017-08-02T17:33:01.788Z,21.9
2017-08-02T17:34:04.871Z,21.9
2017-08-02T17:35:07.637Z,21.9
2017-08-02T17:36:10.765Z,22
2017-08-02T17:37:13.493Z,22
2017-08-02T17:38:16.615Z,22
2017-08-02T17:39:19.183Z,22.1
2017-08-02T17:40:21.290Z,22.3
2017-08-02T17:41:23.388Z,22.3
2017-08-02T17:42:25.829Z,22.2
2017-08-02T17:43:27.973Z,22.4
2017-08-02T17:44:30.089Z,22.4
2017-08-02T17:45:32.537Z,22.5
2017-08-02T17:46:35.307Z,22.5
2017-08-02T17:47:37.410Z,22.5
2017-08-02T17:48:39.884Z,22.6
2017-08-02T17:49:41.990Z,22.6
2017-08-02T17:50:44.112Z,22.5
2017-08-02T17:51:46.203Z,22.6
2017-08-02T17:52:48.308Z,22.7
2017-08-02T17:53:50.415Z,22.7
2017-08-02T17:54:52.885Z,22.5
2017-08-02T17:55:55.333Z,22.5
2017-08-02T17:56:57.456Z,22.2
2017-08-02T17:57:59.890Z,22.4
2017-08-02T17:59:02.336Z,22
2017-08-02T18:00:04.433Z,22
2017-08-02T18:01:06.540Z,21.9
2017-08-02T18:02:09.257Z,21.8
2017-08-02T18:03:12.055Z,21.8
2017-08-02T18:04:14.525Z,21.9
2017-08-02T18:05:16.636Z,21.8
2017-08-02T18:06:19.107Z,21.8
2017-08-02T18:07:21.896Z,21.7
2017-08-02T18:08:24.004Z,21.5
2017-08-02T18:09:26.450Z,21.3
2017-08-02T18:10:28.545Z,21.1
2017-08-02T18:11:30.988Z,21.3
2017-08-02T18:12:33.473Z,21.3
2017-08-02T18:13:36.287Z,21.3
2017-08-02T18:14:38.383Z,21
2017-08-02T18:15:40.494Z,21
2017-08-02T18:16:43.279Z,21
2017-08-02T18:17:45.737Z,20.9
2017-08-02T18:18:47.848Z,21
2017-08-02T18:19:49.953Z,20.9
2017-08-02T18:20:52.400Z,20.9
2017-08-02T18:21:54.500Z,20.8
2017-08-02T18:22:56.604Z,20.7
2017-08-02T18:23:58.722Z,20.7
2017-08-02T18:25:00.832Z,20.8
2017-08-02T18:26:03.274Z,20.9
2017-08-02T18:27:05.717Z,20.7
2017-08-02T18:28:08.171Z,20.7
2017-08-02T18:29:10.251Z,20.8
2017-08-02T18:30:12.703Z,20.8
2017-08-02T18:31:15.166Z,20.8
2017-08-02T18:32:17.276Z,20.6
2017-08-02T18:33:19.719Z,20.6
2017-08-02T18:34:22.178Z,20.5
2017-08-02T18:35:24.988Z,20.6
2017-08-02T18:36:27.772Z,20.6
2017-08-02T18:37:29.885Z,20.5
2017-08-02T18:38:32.656Z,20.5
2017-08-02T18:39:34.760Z,20.5
2017-08-02T18:40:37.225Z,20.3
2017-08-02T18:41:39.332Z,20.3
2017-08-02T18:42:41.436Z,20.3
2017-08-02T18:43:43.887Z,20.2
2017-08-02T18:44:45.988Z,20.2
2017-08-02T18:45:48.850Z,20.2
2017-08-02T18:46:51.297Z,20.2
2017-08-02T18:47:53.412Z,20.2
2017-08-02T18:48:55.509Z,20.2
2017-08-02T18:49:57.956Z,20.2
2017-08-02T18:51:00.396Z,20.3
2017-08-02T18:52:02.516Z,20.2
2017-08-02T18:53:04.967Z,20.1
2017-08-02T18:54:07.068Z,20.2
2017-08-02T18:55:09.163Z,20.1
2017-08-02T18:56:11.608Z,20.2
2017-08-02T18:57:14.408Z,20.1
2017-08-02T18:58:16.852Z,20.1
2017-08-02T18:59:19.279Z,20
2017-08-02T19:00:21.729Z,20
2017-08-02T19:01:24.537Z,20
2017-08-02T19:02:26.643Z,19.9
2017-08-02T19:03:28.741Z,19.9
2017-08-02T19:04:30.834Z,19.9
2017-08-02T19:05:32.919Z,20
2017-08-02T19:06:35.015Z,19.9
2017-08-02T19:07:37.788Z,19.9
2017-08-02T19:08:40.235Z,20
2017-08-02T19:09:42.313Z,19.8
2017-08-02T19:10:44.450Z,19.9
2017-08-02T19:11:46.542Z,19.8
2017-08-02T19:12:48.983Z,19.8
2017-08-02T19:13:51.431Z,19.8
2017-08-02T19:14:53.533Z,19.7
2017-08-02T19:15:55.655Z,19.7
2017-08-02T19:16:57.767Z,19.7
2017-08-02T19:17:59.868Z,19.7
2017-08-02T19:19:02.296Z,19.8
2017-08-02T19:20:04.731Z,19.8
2017-08-02T19:21:06.842Z,19.8
2017-08-02T19:22:09.297Z,19.8
2017-08-02T19:23:11.396Z,19.9
2017-08-02T19:24:13.838Z,19.8
2017-08-02T19:25:15.926Z,19.7
2017-08-02T19:26:18.008Z,19.7
2017-08-02T19:27:20.106Z,19.7
2017-08-02T19:28:22.550Z,19.7
2017-08-02T19:29:25.017Z,19.6
2017-08-02T19:30:27.455Z,19.6
2017-08-02T19:31:29.543Z,19.6
2017-08-02T19:32:31.675Z,19.6
2017-08-02T19:33:33.777Z,19.6
2017-08-02T19:34:36.196Z,19.6
2017-08-02T19:35:38.305Z,19.6
2017-08-02T19:36:40.389Z,19.6
2017-08-02T19:37:42.821Z,19.5
2017-08-02T19:38:44.979Z,19.5
2017-08-02T19:39:47.071Z,19.5
2017-08-02T19:40:49.166Z,19.5
2017-08-02T19:41:51.590Z,19.5
2017-08-02T19:42:53.701Z,19.5
2017-08-02T19:43:55.811Z,19.5
2017-08-02T19:44:57.894Z,19.4
2017-08-02T19:45:59.986Z,19.3
2017-08-02T19:47:02.425Z,19.3
2017-08-02T19:48:04.519Z,19.3
2017-08-02T19:49:06.628Z,19.3
2017-08-02T19:50:08.702Z,19.3
2017-08-02T19:51:11.134Z,19.2
2017-08-02T19:52:13.567Z,19.2
2017-08-02T19:53:16.003Z,19.1
2017-08-02T19:54:18.431Z,19.2